createdAt,value
2018-01-06T00:00:57.976Z,21.85
2018-01-06T00:01:57.951Z,21.80
2018-01-06T00:02:57.929Z,21.76
2018-01-06T00:03:57.907Z,21.75
2018-01-06T00:04:57.886Z,21.67
2018-01-06T00:05:57.863Z,21.72
2018-01-06T00:06:57.841Z,21.70
2018-01-06T00:07:57.819Z,21.62
2018-01-06T00:08:57.797Z,21.62
2018-01-06T00:09:57.775Z,21.61
2018-01-06T00:10:57.753Z,21.61
2018-01-06T00:11:57.731Z,21.60
2018-01-06T00:12:57.709Z,21.61
2018-01-06T00:13:57.687Z,21.55
2018-01-06T00:14:57.664Z,21.51
2018-01-06T00:15:57.642Z,21.54
2018-01-06T00:16:57.620Z,21.54
2018-01-06T00:17:57.598Z,21.51
2018-01-06T00:18:57.575Z,21.54
2018-01-06T00:19:57.554Z,21.48
2018-01-06T00:20:57.532Z,21.52
2018-01-06T00:21:57.513Z,21.43
2018-01-06T00:22:57.487Z,21.42
2018-01-06T00:23:57.465Z,21.45
2018-01-06T00:24:57.442Z,21.40
2018-01-06T00:25:57.420Z,21.35
2018-01-06T00:26:57.398Z,21.35
2018-01-06T00:27:57.376Z,21.32
2018-01-06T00:28:57.354Z,21.36
2018-01-06T00:29:57.332Z,21.29
2018-01-06T00:30:57.311Z,21.45
2018-01-06T00:31:57.287Z,21.29
2018-01-06T00:32:57.266Z,21.35
2018-01-06T00:33:57.243Z,21.37
2018-01-06T00:34:57.221Z,21.37
2018-01-06T00:35:57.199Z,21.32
2018-01-06T00:36:57.178Z,21.29
2018-01-06T00:37:57.154Z,21.22
2018-01-06T00:38:57.132Z,21.18
2018-01-06T00:39:57.110Z,21.22
2018-01-06T00:40:57.088Z,21.20
2018-01-06T00:41:57.065Z,21.18
2018-01-06T00:42:57.043Z,21.17
2018-01-06T00:43:57.022Z,21.17
2018-01-06T00:44:56.999Z,21.21
2018-01-06T00:45:56.976Z,21.07
2018-01-06T00:46:56.954Z,21.17
2018-01-06T00:47:56.933Z,21.24
2018-01-06T00:48:56.911Z,21.18
2018-01-06T00:49:56.887Z,21.12
2018-01-06T00:50:56.865Z,21.18
2018-01-06T00:51:56.842Z,21.14
2018-01-06T00:52:56.821Z,21.14
2018-01-06T00:53:56.798Z,21.15
2018-01-06T00:54:56.776Z,21.17
2018-01-06T00:55:56.757Z,21.09
2018-01-06T00:56:56.732Z,21.12
2018-01-06T00:57:56.709Z,21.18
2018-01-06T00:58:56.688Z,21.17
2018-01-06T00:59:56.666Z,21.07
2018-01-06T01:00:56.643Z,21.05
2018-01-06T01:01:56.620Z,21.11
2018-01-06T01:02:56.597Z,21.06
2018-01-06T01:03:56.575Z,21.07
2018-01-06T01:04:56.553Z,21.03
2018-01-06T01:05:56.531Z,21.03
2018-01-06T01:06:56.508Z,21.06
2018-01-06T01:07:56.486Z,21.03
2018-01-06T01:08:56.464Z,20.97
2018-01-06T01:09:56.440Z,20.99
2018-01-06T01:10:56.418Z,20.97
2018-01-06T01:11:56.395Z,20.90
2018-01-06T01:12:56.374Z,20.93
2018-01-06T01:13:56.351Z,20.95
2018-01-06T01:14:56.329Z,20.93
2018-01-06T01:15:56.309Z,20.99
2018-01-06T01:16:56.284Z,20.93
2018-01-06T01:17:56.262Z,20.90
2018-01-06T01:18:56.238Z,20.90
2018-01-06T01:19:56.217Z,20.90
2018-01-06T01:20:56.198Z,20.95
2018-01-06T01:21:56.172Z,20.92
2018-01-06T01:22:56.149Z,20.95
2018-01-06T01:23:56.127Z,20.95
2018-01-06T01:24:56.106Z,20.95
2018-01-06T01:25:56.083Z,20.85
2018-01-06T01:26:56.060Z,20.81
2018-01-06T01:27:56.038Z,20.82
2018-01-06T01:28:56.016Z,20.88
2018-01-06T01:29:55.997Z,20.85
2018-01-06T01:30:55.970Z,20.85
2018-01-06T01:31:55.948Z,20.81
2018-01-06T01:32:55.926Z,20.80
2018-01-06T01:33:55.903Z,20.88
2018-01-06T01:34:55.881Z,20.87
2018-01-06T01:35:55.860Z,20.88
2018-01-06T01:36:55.836Z,20.81
2018-01-06T01:37:55.813Z,20.80
2018-01-06T01:38:55.791Z,20.74
2018-01-06T01:39:55.769Z,20.78
2018-01-06T01:40:55.747Z,20.75
2018-01-06T01:41:55.723Z,20.80
2018-01-06T01:42:55.704Z,20.77
2018-01-06T01:43:55.680Z,20.88
2018-01-06T01:44:55.657Z,20.77
2018-01-06T01:45:55.634Z,20.77
2018-01-06T01:46:55.612Z,20.75
2018-01-06T01:47:55.590Z,20.80
2018-01-06T01:48:55.568Z,20.74
2018-01-06T01:49:55.545Z,20.74
2018-01-06T01:50:55.524Z,20.72
2018-01-06T01:51:55.501Z,20.70
2018-01-06T01:52:55.480Z,20.70
2018-01-06T01:53:55.455Z,20.63
2018-01-06T01:54:55.436Z,20.65
2018-01-06T01:55:55.411Z,20.65
2018-01-06T01:56:55.392Z,20.72
2018-01-06T01:57:55.389Z,20.62
2018-01-06T01:58:55.345Z,20.66
2018-01-06T01:59:55.322Z,20.66
2018-01-06T02:00:55.301Z,20.69
2018-01-06T02:01:55.276Z,20.62
2018-01-06T02:02:55.255Z,20.74
2018-01-06T02:03:55.232Z,20.66
2018-01-06T02:04:55.211Z,20.66
2018-01-06T02:05:55.187Z,20.69
2018-01-06T02:06:55.166Z,20.55
2018-01-06T02:07:55.142Z,20.59
2018-01-06T02:08:55.121Z,20.58
2018-01-06T02:09:55.097Z,20.58
2018-01-06T02:10:55.075Z,20.55
2018-01-06T02:11:55.053Z,20.55
2018-01-06T02:12:55.031Z,20.56
2018-01-06T02:13:55.007Z,20.55
2018-01-06T02:14:54.987Z,20.60
2018-01-06T02:15:54.963Z,20.62
2018-01-06T02:16:54.941Z,20.62
2018-01-06T02:17:54.918Z,20.59
2018-01-06T02:18:54.924Z,20.56
2018-01-06T02:19:54.873Z,20.60
2018-01-06T02:20:54.851Z,20.56
2018-01-06T02:21:54.828Z,20.59
2018-01-06T02:22:54.806Z,20.58
2018-01-06T02:23:54.783Z,20.58
2018-01-06T02:24:54.822Z,20.56
2018-01-06T02:25:54.738Z,20.55
2018-01-06T02:26:54.716Z,20.48
2018-01-06T02:27:54.694Z,20.52
2018-01-06T02:28:54.671Z,20.50
2018-01-06T02:29:54.650Z,20.58
2018-01-06T02:30:54.626Z,20.65
2018-01-06T02:31:54.603Z,20.51
2018-01-06T02:32:54.581Z,20.55
2018-01-06T02:33:54.590Z,20.44
2018-01-06T02:34:54.536Z,20.50
2018-01-06T02:35:54.514Z,20.60
2018-01-06T02:36:54.494Z,20.44
2018-01-06T02:37:54.468Z,20.55
2018-01-06T02:38:54.447Z,20.50
2018-01-06T02:39:54.425Z,20.50
2018-01-06T02:40:54.402Z,20.56
2018-01-06T02:41:54.379Z,20.52
2018-01-06T02:42:54.357Z,20.51
2018-01-06T02:43:54.335Z,20.48
2018-01-06T02:44:54.312Z,20.50
2018-01-06T02:45:54.289Z,20.56
2018-01-06T02:46:54.267Z,20.44
2018-01-06T02:47:54.244Z,20.56
2018-01-06T02:48:54.222Z,20.55
2018-01-06T02:49:54.199Z,20.52
2018-01-06T02:50:54.177Z,20.51
2018-01-06T02:51:54.155Z,20.48
2018-01-06T02:52:54.132Z,20.44
2018-01-06T02:53:54.110Z,20.50
2018-01-06T02:54:54.087Z,20.52
2018-01-06T02:55:54.065Z,20.41
2018-01-06T02:56:54.042Z,20.47
2018-01-06T02:57:54.020Z,20.40
2018-01-06T02:58:53.997Z,20.44
2018-01-06T02:59:53.975Z,20.50
2018-01-06T03:00:53.953Z,20.41
2018-01-06T03:01:53.930Z,20.48
2018-01-06T03:02:53.908Z,20.51
2018-01-06T03:03:53.885Z,20.43
2018-01-06T03:04:53.869Z,20.44
2018-01-06T03:05:53.841Z,20.41
2018-01-06T03:06:53.817Z,20.47
2018-01-06T03:07:53.796Z,20.37
2018-01-06T03:08:53.773Z,20.36
2018-01-06T03:09:53.749Z,20.44
2018-01-06T03:10:53.727Z,20.44
2018-01-06T03:11:53.705Z,20.32
2018-01-06T03:12:53.682Z,20.39
2018-01-06T03:13:53.659Z,20.41
2018-01-06T03:14:53.637Z,20.37
2018-01-06T03:15:53.917Z,20.39
2018-01-06T03:16:53.593Z,20.37
2018-01-06T03:17:53.569Z,20.39
2018-01-06T03:18:53.547Z,20.37
2018-01-06T03:19:53.524Z,20.40
2018-01-06T03:20:53.503Z,20.36
2018-01-06T03:21:53.479Z,20.37
2018-01-06T03:22:53.456Z,20.39
2018-01-06T03:23:53.434Z,20.37
2018-01-06T03:24:53.411Z,20.36
2018-01-06T03:25:53.388Z,20.32
2018-01-06T03:26:53.366Z,20.32
2018-01-06T03:27:53.343Z,20.31
2018-01-06T03:28:53.321Z,20.34
2018-01-06T03:29:53.298Z,20.32
2018-01-06T03:30:53.276Z,20.40
2018-01-06T03:31:53.257Z,20.31
2018-01-06T03:32:53.230Z,20.34
2018-01-06T03:33:53.206Z,20.29
2018-01-06T03:34:53.185Z,20.28
2018-01-06T03:35:53.162Z,20.36
2018-01-06T03:36:53.140Z,20.29
2018-01-06T03:37:53.116Z,20.32
2018-01-06T03:38:53.094Z,20.37
2018-01-06T03:39:53.071Z,20.37
2018-01-06T03:40:53.049Z,20.39
2018-01-06T03:41:53.025Z,20.40
2018-01-06T03:42:53.004Z,20.52
2018-01-06T03:43:52.981Z,20.52
2018-01-06T03:44:52.958Z,20.56
2018-01-06T03:45:52.935Z,20.55
2018-01-06T03:46:52.913Z,20.59
2018-01-06T03:47:52.891Z,20.67
2018-01-06T03:48:52.868Z,20.77
2018-01-06T03:49:52.845Z,20.75
2018-01-06T03:50:52.823Z,20.88
2018-01-06T03:51:52.801Z,20.93
2018-01-06T03:52:52.779Z,21.03
2018-01-06T03:53:52.756Z,21.09
2018-01-06T03:54:52.733Z,21.12
2018-01-06T03:55:52.711Z,21.22
2018-01-06T03:56:52.688Z,21.32
2018-01-06T03:57:52.666Z,21.36
2018-01-06T03:58:52.643Z,21.45
2018-01-06T03:59:52.621Z,21.55
2018-01-06T04:00:52.599Z,21.70
2018-01-06T04:01:52.576Z,21.79
2018-01-06T04:02:52.554Z,21.91
2018-01-06T04:03:52.532Z,21.85
2018-01-06T04:04:52.510Z,22.00
2018-01-06T04:05:52.492Z,22.07
2018-01-06T04:06:52.465Z,22.17
2018-01-06T04:07:52.443Z,22.30
2018-01-06T04:08:52.421Z,22.39
2018-01-06T04:09:52.397Z,22.48
2018-01-06T04:10:52.379Z,22.48
2018-01-06T04:11:52.354Z,22.63
2018-01-06T04:12:52.333Z,22.63
2018-01-06T04:13:52.308Z,22.72
2018-01-06T04:14:52.287Z,22.84
2018-01-06T04:15:52.264Z,22.80
2018-01-06T04:16:54.145Z,22.85
2018-01-06T04:17:52.219Z,22.90
2018-01-06T04:18:52.198Z,22.83
2018-01-06T04:19:52.176Z,22.93
2018-01-06T04:20:52.156Z,23.00
2018-01-06T04:21:52.135Z,23.09
2018-01-06T04:22:52.113Z,23.13
2018-01-06T04:23:52.087Z,23.08
2018-01-06T04:24:52.068Z,23.21
2018-01-06T04:25:52.042Z,23.32
2018-01-06T04:26:52.021Z,23.37
2018-01-06T04:27:51.998Z,23.41
2018-01-06T04:28:51.976Z,23.47
2018-01-06T04:29:51.953Z,23.37
2018-01-06T04:30:51.931Z,23.44
2018-01-06T04:31:51.909Z,23.46
2018-01-06T04:32:51.888Z,23.47
2018-01-06T04:33:51.865Z,23.47
2018-01-06T04:34:51.846Z,23.51
2018-01-06T04:35:51.824Z,23.48
2018-01-06T04:36:51.800Z,23.59
2018-01-06T04:37:51.825Z,23.65
2018-01-06T04:38:51.756Z,23.65
2018-01-06T04:39:51.734Z,23.68
2018-01-06T04:40:51.711Z,23.83
2018-01-06T04:41:51.689Z,23.84
2018-01-06T04:42:51.667Z,23.80
2018-01-06T04:43:51.646Z,23.92
2018-01-06T04:44:51.622Z,23.86
2018-01-06T04:45:51.601Z,23.88
2018-01-06T04:46:51.579Z,23.88
2018-01-06T04:47:51.557Z,23.86
2018-01-06T04:48:51.536Z,23.87
2018-01-06T04:49:51.513Z,23.86
2018-01-06T04:50:51.492Z,23.83
2018-01-06T04:51:51.469Z,23.88
2018-01-06T04:52:51.448Z,23.87
2018-01-06T04:53:51.425Z,23.88
2018-01-06T04:54:51.404Z,23.98
2018-01-06T04:55:51.382Z,23.98
2018-01-06T04:56:51.360Z,23.96
2018-01-06T04:57:51.337Z,23.99
2018-01-06T04:58:51.316Z,23.87
2018-01-06T04:59:51.294Z,23.99
2018-01-06T05:00:51.272Z,23.99
2018-01-06T05:01:51.251Z,23.96
2018-01-06T05:02:51.233Z,23.86
2018-01-06T05:03:51.205Z,24.01
2018-01-06T05:04:51.184Z,24.01
2018-01-06T05:05:51.163Z,23.99
2018-01-06T05:06:51.140Z,24.10
2018-01-06T05:07:51.118Z,24.14
2018-01-06T05:08:51.100Z,24.21
2018-01-06T05:09:51.076Z,24.40
2018-01-06T05:10:51.051Z,24.38
2018-01-06T05:11:51.030Z,24.30
2018-01-06T05:12:51.008Z,24.43
2018-01-06T05:13:50.985Z,24.43
2018-01-06T05:14:50.963Z,24.40
2018-01-06T05:15:50.942Z,24.39
2018-01-06T05:16:50.919Z,24.43
2018-01-06T05:17:50.896Z,24.38
2018-01-06T05:18:50.875Z,24.39
2018-01-06T05:19:50.853Z,24.40
2018-01-06T05:20:50.831Z,24.42
2018-01-06T05:21:50.808Z,24.45
2018-01-06T05:22:50.786Z,24.48
2018-01-06T05:23:50.765Z,24.51
2018-01-06T05:24:50.743Z,24.40
2018-01-06T05:25:50.727Z,24.58
2018-01-06T05:26:50.698Z,24.51
2018-01-06T05:27:50.676Z,24.51
2018-01-06T05:28:50.654Z,24.51
2018-01-06T05:29:50.632Z,24.57
2018-01-06T05:30:50.610Z,24.55
2018-01-06T05:31:50.588Z,24.54
2018-01-06T05:32:50.566Z,24.60
2018-01-06T05:33:50.544Z,24.57
2018-01-06T05:34:50.522Z,24.63
2018-01-06T05:35:50.500Z,24.76
2018-01-06T05:36:50.478Z,24.55
2018-01-06T05:37:50.455Z,24.66
2018-01-06T05:38:50.434Z,24.55
2018-01-06T05:39:50.412Z,24.73
2018-01-06T05:40:50.390Z,24.73
2018-01-06T05:41:50.373Z,24.65
2018-01-06T05:42:50.345Z,24.68
2018-01-06T05:43:50.324Z,24.69
2018-01-06T05:44:50.302Z,24.65
2018-01-06T05:45:50.280Z,24.84
2018-01-06T05:46:50.257Z,24.70
2018-01-06T05:47:50.236Z,24.74
2018-01-06T05:48:50.214Z,24.85
2018-01-06T05:49:50.191Z,24.73
2018-01-06T05:50:50.169Z,24.73
2018-01-06T05:51:50.148Z,24.74
2018-01-06T05:52:50.132Z,24.73
2018-01-06T05:53:50.104Z,24.85
2018-01-06T05:54:50.087Z,24.80
2018-01-06T05:55:50.060Z,24.74
2018-01-06T05:56:50.038Z,24.69
2018-01-06T05:57:50.016Z,24.73
2018-01-06T05:58:49.994Z,24.80
2018-01-06T05:59:49.972Z,24.76
2018-01-06T06:00:49.950Z,24.86
2018-01-06T06:01:49.928Z,24.77
2018-01-06T06:02:49.907Z,24.84
2018-01-06T06:03:49.885Z,24.80
2018-01-06T06:04:49.863Z,24.73
2018-01-06T06:05:49.840Z,24.81
2018-01-06T06:06:49.819Z,24.86
2018-01-06T06:07:49.797Z,24.77
2018-01-06T06:08:49.775Z,24.77
2018-01-06T06:09:49.753Z,24.84
2018-01-06T06:10:49.731Z,24.78
2018-01-06T06:11:49.709Z,24.89
2018-01-06T06:12:49.688Z,24.81
2018-01-06T06:13:49.665Z,24.88
2018-01-06T06:14:49.643Z,24.91
2018-01-06T06:15:49.621Z,24.86
2018-01-06T06:16:49.601Z,24.86
2018-01-06T06:17:49.578Z,24.81
2018-01-06T06:18:49.556Z,24.81
2018-01-06T06:19:49.534Z,24.86
2018-01-06T06:20:49.513Z,24.84
2018-01-06T06:21:49.490Z,24.92
2018-01-06T06:22:49.468Z,24.95
2018-01-06T06:23:49.450Z,24.99
2018-01-06T06:24:49.425Z,25.03
2018-01-06T06:25:49.402Z,24.93
2018-01-06T06:26:49.384Z,24.86
2018-01-06T06:27:49.359Z,24.88
2018-01-06T06:28:49.337Z,24.86
2018-01-06T06:29:49.316Z,24.98
2018-01-06T06:30:49.293Z,24.93
2018-01-06T06:31:49.272Z,24.85
2018-01-06T06:32:49.250Z,24.96
2018-01-06T06:33:49.227Z,24.84
2018-01-06T06:34:49.206Z,25.06
2018-01-06T06:35:49.184Z,24.98
2018-01-06T06:36:49.163Z,24.98
2018-01-06T06:37:49.140Z,24.99
2018-01-06T06:38:49.118Z,24.98
2018-01-06T06:39:49.100Z,24.99
2018-01-06T06:40:49.075Z,24.89
2018-01-06T06:41:49.053Z,24.93
2018-01-06T06:42:49.031Z,24.89
2018-01-06T06:43:49.010Z,24.98
2018-01-06T06:44:48.988Z,25.01
2018-01-06T06:45:48.966Z,25.07
2018-01-06T06:46:48.944Z,25.06
2018-01-06T06:47:48.922Z,24.99
2018-01-06T06:48:48.902Z,25.03
2018-01-06T06:49:48.878Z,25.01
2018-01-06T06:50:48.890Z,25.08
2018-01-06T06:51:48.834Z,24.96
2018-01-06T06:52:48.813Z,24.95
2018-01-06T06:53:48.791Z,25.04
2018-01-06T06:54:48.774Z,25.01
2018-01-06T06:55:48.748Z,24.91
2018-01-06T06:56:48.727Z,24.92
2018-01-06T06:57:48.703Z,25.03
2018-01-06T06:58:48.681Z,25.11
2018-01-06T06:59:48.661Z,25.04
2018-01-06T07:00:48.639Z,25.16
2018-01-06T07:01:48.616Z,25.03
2018-01-06T07:02:48.595Z,25.04
2018-01-06T07:03:48.573Z,25.03
2018-01-06T07:04:48.552Z,24.93
2018-01-06T07:05:48.534Z,24.93
2018-01-06T07:06:48.508Z,24.99
2018-01-06T07:07:48.486Z,25.01
2018-01-06T07:08:48.464Z,25.07
2018-01-06T07:09:48.441Z,25.03
2018-01-06T07:10:48.421Z,25.03
2018-01-06T07:11:48.399Z,25.04
2018-01-06T07:12:48.377Z,25.03
2018-01-06T07:13:48.354Z,25.01
2018-01-06T07:14:48.333Z,24.84
2018-01-06T07:15:48.311Z,24.84
2018-01-06T07:16:48.291Z,24.80
2018-01-06T07:17:48.268Z,24.74
2018-01-06T07:18:48.246Z,24.80
2018-01-06T07:19:48.224Z,24.86
2018-01-06T07:20:48.203Z,24.88
2018-01-06T07:21:48.180Z,24.81
2018-01-06T07:22:48.158Z,24.77
2018-01-06T07:23:48.137Z,24.84
2018-01-06T07:24:48.115Z,24.81
2018-01-06T07:25:48.113Z,24.85
2018-01-06T07:26:48.071Z,24.84
2018-01-06T07:27:48.050Z,24.80
2018-01-06T07:28:48.028Z,24.78
2018-01-06T07:29:48.006Z,24.84
2018-01-06T07:30:47.984Z,24.85
2018-01-06T07:31:47.963Z,24.88
2018-01-06T07:32:47.941Z,25.03
2018-01-06T07:33:47.918Z,24.96
2018-01-06T07:34:47.897Z,25.01
2018-01-06T07:35:47.875Z,25.01
2018-01-06T07:36:47.854Z,24.95
2018-01-06T07:37:47.831Z,24.98
2018-01-06T07:38:47.810Z,25.03
2018-01-06T07:39:47.788Z,25.06
2018-01-06T07:40:47.766Z,24.92
2018-01-06T07:41:47.744Z,24.99
2018-01-06T07:42:47.726Z,25.07
2018-01-06T07:43:47.701Z,25.10
2018-01-06T07:44:47.685Z,25.03
2018-01-06T07:45:47.657Z,25.06
2018-01-06T07:46:47.636Z,25.04
2018-01-06T07:47:47.614Z,25.18
2018-01-06T07:48:47.592Z,25.21
2018-01-06T07:49:47.569Z,25.11
2018-01-06T07:50:47.548Z,25.08
2018-01-06T07:51:47.528Z,25.11
2018-01-06T07:52:47.505Z,25.16
2018-01-06T07:53:47.484Z,25.10
2018-01-06T07:54:47.461Z,25.11
2018-01-06T07:55:47.440Z,25.14
2018-01-06T07:56:47.418Z,25.14
2018-01-06T07:57:47.395Z,25.21
2018-01-06T07:58:47.374Z,25.18
2018-01-06T07:59:47.354Z,25.25
2018-01-06T08:00:47.331Z,25.21
2018-01-06T08:01:47.309Z,25.22
2018-01-06T08:02:47.287Z,25.21
2018-01-06T08:03:47.266Z,25.08
2018-01-06T08:04:47.244Z,25.21
2018-01-06T08:05:47.222Z,25.25
2018-01-06T08:06:47.200Z,25.17
2018-01-06T08:07:47.179Z,25.23
2018-01-06T08:08:47.203Z,25.31
2018-01-06T08:09:47.134Z,25.25
2018-01-06T08:10:47.113Z,25.26
2018-01-06T08:11:47.091Z,25.29
2018-01-06T08:12:47.070Z,25.22
2018-01-06T08:13:47.047Z,25.23
2018-01-06T08:14:47.026Z,25.22
2018-01-06T08:15:47.004Z,25.22
2018-01-06T08:16:46.983Z,25.21
2018-01-06T08:17:46.961Z,25.32
2018-01-06T08:18:46.939Z,25.23
2018-01-06T08:19:46.917Z,25.26
2018-01-06T08:20:46.900Z,25.28
2018-01-06T08:21:46.873Z,25.25
2018-01-06T08:22:46.852Z,25.18
2018-01-06T08:23:46.831Z,25.29
2018-01-06T08:24:46.809Z,25.40
2018-01-06T08:25:46.786Z,25.33
2018-01-06T08:26:46.765Z,25.40
2018-01-06T08:27:46.744Z,25.36
2018-01-06T08:28:46.722Z,25.36
2018-01-06T08:29:46.700Z,25.41
2018-01-06T08:30:46.679Z,25.33
2018-01-06T08:31:46.659Z,25.33
2018-01-06T08:32:46.636Z,25.23
2018-01-06T08:33:46.613Z,25.32
2018-01-06T08:34:46.592Z,25.26
2018-01-06T08:35:46.570Z,25.33
2018-01-06T08:36:46.549Z,25.46
2018-01-06T08:37:46.526Z,25.36
2018-01-06T08:38:46.504Z,25.35
2018-01-06T08:39:46.484Z,25.43
2018-01-06T08:40:46.462Z,25.41
2018-01-06T08:41:46.440Z,25.43
2018-01-06T08:42:46.419Z,25.46
2018-01-06T08:43:46.397Z,25.41
2018-01-06T08:44:46.376Z,25.40
2018-01-06T08:45:46.353Z,25.26
2018-01-06T08:46:46.332Z,25.38
2018-01-06T08:47:46.312Z,25.40
2018-01-06T08:48:46.289Z,25.33
2018-01-06T08:49:46.268Z,25.33
2018-01-06T08:50:46.246Z,25.44
2018-01-06T08:51:46.224Z,25.35
2018-01-06T08:52:46.204Z,25.26
2018-01-06T08:53:46.181Z,25.35
2018-01-06T08:54:46.160Z,25.38
2018-01-06T08:55:46.138Z,25.33
2018-01-06T08:56:46.117Z,25.40
2018-01-06T08:57:46.095Z,25.43
2018-01-06T08:58:46.073Z,25.48
2018-01-06T08:59:46.052Z,25.51
2018-01-06T09:00:46.037Z,25.44
2018-01-06T09:01:46.009Z,25.48
2018-01-06T09:02:45.988Z,25.47
2018-01-06T09:03:45.966Z,25.55
2018-01-06T09:04:45.957Z,25.47
2018-01-06T09:05:45.922Z,25.53
2018-01-06T09:06:45.902Z,25.44
2018-01-06T09:07:45.881Z,25.44
2018-01-06T09:08:45.859Z,25.43
2018-01-06T09:09:45.837Z,25.44
2018-01-06T09:10:45.816Z,25.46
2018-01-06T09:11:45.794Z,25.66
2018-01-06T09:12:45.773Z,25.55
2018-01-06T09:13:45.751Z,25.43
2018-01-06T09:14:45.754Z,25.40
2018-01-06T09:15:45.708Z,25.48
2018-01-06T09:16:45.688Z,25.53
2018-01-06T09:17:45.665Z,25.55
2018-01-06T09:18:45.644Z,25.50
2018-01-06T09:19:45.623Z,25.41
2018-01-06T09:20:45.602Z,25.46
2018-01-06T09:21:45.580Z,25.43
2018-01-06T09:22:45.559Z,25.40
2018-01-06T09:23:45.537Z,25.46
2018-01-06T09:24:45.516Z,25.48
2018-01-06T09:25:45.495Z,25.51
2018-01-06T09:26:45.473Z,25.48
2018-01-06T09:27:45.452Z,25.44
2018-01-06T09:28:45.430Z,25.55
2018-01-06T09:29:45.409Z,25.50
2018-01-06T09:30:45.388Z,25.47
2018-01-06T09:31:45.366Z,25.31
2018-01-06T09:32:45.345Z,25.38
2018-01-06T09:33:45.326Z,25.46
2018-01-06T09:34:45.302Z,25.41
2018-01-06T09:35:45.281Z,25.41
2018-01-06T09:36:45.260Z,25.51
2018-01-06T09:37:45.239Z,25.48
2018-01-06T09:38:45.217Z,25.46
2018-01-06T09:39:45.195Z,25.41
2018-01-06T09:40:45.174Z,25.41
2018-01-06T09:41:45.153Z,25.51
2018-01-06T09:42:45.131Z,25.51
2018-01-06T09:43:45.110Z,25.51
2018-01-06T09:44:45.088Z,25.54
2018-01-06T09:45:45.066Z,25.55
2018-01-06T09:46:45.045Z,25.51
2018-01-06T09:47:45.024Z,25.43
2018-01-06T09:48:45.002Z,25.43
2018-01-06T09:49:44.980Z,25.46
2018-01-06T09:50:44.961Z,25.35
2018-01-06T09:51:44.937Z,25.44
2018-01-06T09:52:44.921Z,25.55
2018-01-06T09:53:44.895Z,25.43
2018-01-06T09:54:44.873Z,25.43
2018-01-06T09:55:44.852Z,25.46
2018-01-06T09:56:44.833Z,25.54
2018-01-06T09:57:44.808Z,25.51
2018-01-06T09:58:44.788Z,25.58
2018-01-06T09:59:44.766Z,25.50
2018-01-06T10:00:44.747Z,25.47
2018-01-06T10:01:44.724Z,25.53
2018-01-06T10:02:44.702Z,25.47
2018-01-06T10:03:44.681Z,25.50
2018-01-06T10:04:44.660Z,25.40
2018-01-06T10:05:44.638Z,25.41
2018-01-06T10:06:44.616Z,25.43
2018-01-06T10:07:44.596Z,25.41
2018-01-06T10:08:44.574Z,25.43
2018-01-06T10:09:44.553Z,25.55
2018-01-06T10:10:44.531Z,25.38
2018-01-06T10:11:44.510Z,25.38
2018-01-06T10:12:44.489Z,25.47
2018-01-06T10:13:44.468Z,25.43
2018-01-06T10:14:44.446Z,25.54
2018-01-06T10:15:44.425Z,25.50
2018-01-06T10:16:44.405Z,25.41
2018-01-06T10:17:44.383Z,25.51
2018-01-06T10:18:44.361Z,25.55
2018-01-06T10:19:44.341Z,25.54
2018-01-06T10:20:44.323Z,25.60
2018-01-06T10:21:44.298Z,25.60
2018-01-06T10:22:44.277Z,25.62
2018-01-06T10:23:44.255Z,25.62
2018-01-06T10:24:44.235Z,25.60
2018-01-06T10:25:44.213Z,25.58
2018-01-06T10:26:44.192Z,25.66
2018-01-06T10:27:44.171Z,25.55
2018-01-06T10:28:44.150Z,25.59
2018-01-06T10:29:44.127Z,25.51
2018-01-06T10:30:44.106Z,25.54
2018-01-06T10:31:44.086Z,25.51
2018-01-06T10:32:44.065Z,25.63
2018-01-06T10:33:44.043Z,25.66
2018-01-06T10:34:44.022Z,25.59
2018-01-06T10:35:44.001Z,25.60
2018-01-06T10:36:43.980Z,25.53
2018-01-06T10:37:43.958Z,25.50
2018-01-06T10:38:43.938Z,25.50
2018-01-06T10:39:43.915Z,25.50
2018-01-06T10:40:43.895Z,25.53
2018-01-06T10:41:43.873Z,25.43
2018-01-06T10:42:43.853Z,25.50
2018-01-06T10:43:43.831Z,25.51
2018-01-06T10:44:43.810Z,25.50
2018-01-06T10:45:43.791Z,25.58
2018-01-06T10:46:43.767Z,25.51
2018-01-06T10:47:43.745Z,25.59
2018-01-06T10:48:43.725Z,25.54
2018-01-06T10:49:43.703Z,25.44
2018-01-06T10:50:43.682Z,25.46
2018-01-06T10:51:43.661Z,25.47
2018-01-06T10:52:43.640Z,25.47
2018-01-06T10:53:43.618Z,25.51
2018-01-06T10:54:43.597Z,25.47
2018-01-06T10:55:43.576Z,25.44
2018-01-06T10:56:43.555Z,25.43
2018-01-06T10:57:43.536Z,25.44
2018-01-06T10:58:43.512Z,25.58
2018-01-06T10:59:43.490Z,25.58
2018-01-06T11:00:43.470Z,25.60
2018-01-06T11:01:43.447Z,25.55
2018-01-06T11:02:43.426Z,25.62
2018-01-06T11:03:43.406Z,25.53
2018-01-06T11:04:43.388Z,25.60
2018-01-06T11:05:43.362Z,25.44
2018-01-06T11:06:43.342Z,25.46
2018-01-06T11:07:43.320Z,25.48
2018-01-06T11:08:43.302Z,25.60
2018-01-06T11:09:43.295Z,25.59
2018-01-06T11:10:43.256Z,25.66
2018-01-06T11:11:43.235Z,25.65
2018-01-06T11:12:43.214Z,25.55
2018-01-06T11:13:43.192Z,25.62
2018-01-06T11:14:43.171Z,25.63
2018-01-06T11:15:43.154Z,25.60
2018-01-06T11:16:43.129Z,25.59
2018-01-06T11:17:43.107Z,25.60
2018-01-06T11:18:43.086Z,25.59
2018-01-06T11:19:43.065Z,25.66
2018-01-06T11:20:43.045Z,25.70
2018-01-06T11:21:43.023Z,25.70
2018-01-06T11:22:43.002Z,25.73
2018-01-06T11:23:42.981Z,25.65
2018-01-06T11:24:42.960Z,25.73
2018-01-06T11:25:42.939Z,25.78
2018-01-06T11:26:42.917Z,25.81
2018-01-06T11:27:42.897Z,25.78
2018-01-06T11:28:42.876Z,25.80
2018-01-06T11:29:42.853Z,25.63
2018-01-06T11:30:42.833Z,25.65
2018-01-06T11:31:42.814Z,25.43
2018-01-06T11:32:42.792Z,25.53
2018-01-06T11:33:42.771Z,25.66
2018-01-06T11:34:42.749Z,25.72
2018-01-06T11:35:42.728Z,25.70
2018-01-06T11:36:42.707Z,25.77
2018-01-06T11:37:42.684Z,25.78
2018-01-06T11:38:42.664Z,25.78
2018-01-06T11:39:42.643Z,25.84
2018-01-06T11:40:42.623Z,25.80
2018-01-06T11:41:42.600Z,25.85
2018-01-06T11:42:42.580Z,25.73
2018-01-06T11:43:42.559Z,25.65
2018-01-06T11:44:42.539Z,25.75
2018-01-06T11:45:42.517Z,25.78
2018-01-06T11:46:42.496Z,25.81
2018-01-06T11:47:42.522Z,25.70
2018-01-06T11:48:42.454Z,25.80
2018-01-06T11:49:42.432Z,25.78
2018-01-06T11:50:42.412Z,25.84
2018-01-06T11:51:42.391Z,25.80
2018-01-06T11:52:42.370Z,25.72
2018-01-06T11:53:42.348Z,25.65
2018-01-06T11:54:42.328Z,25.65
2018-01-06T11:55:42.308Z,25.65
2018-01-06T11:56:42.285Z,25.72
2018-01-06T11:57:42.264Z,25.81
2018-01-06T11:58:42.243Z,25.88
2018-01-06T11:59:42.223Z,25.85
2018-01-06T12:00:42.201Z,25.93
2018-01-06T12:01:42.180Z,25.99
2018-01-06T12:02:42.160Z,25.88
2018-01-06T12:03:42.138Z,25.88
2018-01-06T12:04:42.122Z,25.80
2018-01-06T12:05:42.096Z,25.73
2018-01-06T12:06:42.109Z,25.84
2018-01-06T12:07:42.058Z,25.81
2018-01-06T12:08:42.034Z,25.90
2018-01-06T12:09:42.012Z,25.88
2018-01-06T12:10:42.030Z,25.96
2018-01-06T12:11:41.971Z,25.93
2018-01-06T12:12:41.951Z,25.83
2018-01-06T12:13:41.929Z,25.78
2018-01-06T12:14:41.908Z,25.84
2018-01-06T12:15:41.887Z,25.84
2018-01-06T12:16:41.867Z,25.65
2018-01-06T12:17:41.845Z,25.50
2018-01-06T12:18:41.825Z,25.60
2018-01-06T12:19:41.803Z,25.65
2018-01-06T12:20:41.783Z,25.63
2018-01-06T12:21:41.762Z,25.72
2018-01-06T12:22:41.741Z,25.78
2018-01-06T12:23:41.720Z,25.90
2018-01-06T12:24:41.700Z,25.85
2018-01-06T12:25:41.678Z,25.84
2018-01-06T12:26:41.658Z,25.75
2018-01-06T12:27:41.637Z,25.78
2018-01-06T12:28:41.617Z,25.84
2018-01-06T12:29:41.635Z,25.77
2018-01-06T12:30:41.574Z,25.77
2018-01-06T12:31:41.554Z,25.81
2018-01-06T12:32:41.533Z,25.78
2018-01-06T12:33:41.511Z,25.78
2018-01-06T12:34:41.491Z,25.90
2018-01-06T12:35:41.472Z,25.88
2018-01-06T12:36:41.449Z,25.91
2018-01-06T12:37:41.428Z,25.90
2018-01-06T12:38:41.407Z,25.91
2018-01-06T12:39:41.386Z,25.83
2018-01-06T12:40:41.369Z,25.88
2018-01-06T12:41:41.344Z,25.68
2018-01-06T12:42:41.323Z,25.65
2018-01-06T12:43:41.303Z,25.63
2018-01-06T12:44:41.282Z,25.75
2018-01-06T12:45:41.260Z,25.69
2018-01-06T12:46:41.240Z,25.78
2018-01-06T12:47:41.219Z,25.81
2018-01-06T12:48:41.198Z,25.73
2018-01-06T12:49:41.178Z,25.78
2018-01-06T12:50:41.155Z,25.78
2018-01-06T12:51:41.135Z,25.68
2018-01-06T12:52:41.114Z,25.72